Andiamo — WDE2131 — position and weather

sailwx.info

Track history (hours):
 
Tides and Currents Weather Stations Pressure Air Temp Water Temp Dewpoint Dewpoint Depression Visibility Wind Speed Wind Dir Waves Ship Positions

Andiamo

Owner: Briggs, Robert O, Newport Beach, CA. More information available from US FCC via Universal Licensing System.

Last reported at 2016-Nov-19 01:27 UTC. Time now 2016-Dec-03 15:36 UTC.
Position N 32°14' W 117°20'.
Warning: this ship's position is 14 days out of date.

Length 22 m.

Type: Pleasure craft. MMSI: 367320870.

Date/timePositionNaut miles runAvg speedWind from/ knotsBaromVisibWave heightAir tempDewpointWater temp
2016-Nov-19 01:27N 32°14' W 117°20'910.4
2016-Nov-19 00:33N 32°23' W 117°22'1010.3
2016-Nov-18 23:33N 32°33' W 117°25'3010.1
2016-Nov-18 20:34N 33°02' W 117°37'20 9.9
2016-Nov-18 18:33N 33°20' W 117°46'1010.0
2016-Nov-18 17:33N 33°30' W 117°50'8 0.6
2016-Nov-18 04:17N 33°37' W 117°55'0 0.0
2016-Nov-17 23:04N 33°37' W 117°55'0 0.0
2016-Nov-17 22:33N 33°37' W 117°55'0 0.0
2016-Nov-17 18:26N 33°37' W 117°55'0 0.0
2016-Nov-16 17:33N 33°37' W 117°55'13 8.6
2016-Nov-16 16:04N 33°25' W 117°48'3810.3
2016-Nov-16 12:22N 32°49' W 117°33'15 5.3
2016-Nov-16 09:33N 33°03' W 117°39'10 9.9
2016-Nov-16 08:33N 33°12' W 117°43'10 9.8
2016-Nov-16 07:32N 33°22' W 117°47'1010.2
2016-Nov-16 06:33N 33°31' W 117°51'7 3.1
2016-Nov-16 04:25N 33°37' W 117°55'0 0.0
2016-Nov-16 03:32N 33°37' W 117°55'0 0.0
2016-Nov-16 02:24N 33°37' W 117°55'0 0.0
2016-Nov-16 01:34N 33°37' W 117°55'0 0.0
2016-Nov-15 21:13N 33°37' W 117°55'0 0.0
2016-Nov-15 19:33N 33°37' W 117°55'0 0.0
2016-Nov-15 18:33N 33°37' W 117°55'0 0.0
2016-Nov-15 13:33N 33°37' W 117°55'0 0.0
2016-Nov-15 12:33N 33°37' W 117°55'0 0.0
2016-Nov-15 11:32N 33°37' W 117°55'0 0.0
2016-Nov-15 10:30N 33°37' W 117°55'0 0.0
2016-Nov-15 07:33N 33°37' W 117°55'0 0.0
2016-Nov-15 06:33N 33°37' W 117°55'0 0.0
2016-Nov-15 05:53N 33°37' W 117°55'0 0.0
2016-Nov-15 02:34N 33°37' W 117°55'0 0.0
2016-Nov-15 00:34N 33°37' W 117°55'0 0.0
2016-Nov-14 23:43N 33°37' W 117°55'0 0.0
2016-Nov-14 19:33N 33°37' W 117°55'0 0.0
2016-Nov-14 17:33N 33°37' W 117°55'0 0.0
2016-Nov-14 15:33N 33°37' W 117°55'0 0.0
2016-Nov-14 11:33N 33°37' W 117°55'0 0.0
2016-Nov-14 08:33N 33°37' W 117°55'0 0.0
2016-Nov-14 05:33N 33°37' W 117°55'0 0.0
2016-Nov-14 00:33N 33°37' W 117°55'0 0.0
2016-Nov-13 23:33N 33°37' W 117°55'0 0.0
2016-Nov-13 22:33N 33°37' W 117°55'0 0.0
2016-Nov-13 19:33N 33°37' W 117°55'0 0.0
2016-Nov-13 18:33N 33°37' W 117°55'0 0.0
2016-Nov-13 17:34N 33°37' W 117°55'0 0.0
2016-Nov-13 15:34N 33°37' W 117°55'0 0.0
2016-Nov-13 13:33N 33°37' W 117°55'0 0.0
2016-Nov-13 10:33N 33°37' W 117°55'0 0.0
2016-Nov-13 08:34N 33°37' W 117°55'0 0.0
2016-Nov-13 05:33N 33°37' W 117°55'0 0.0
2016-Nov-13 03:33N 33°37' W 117°55'0 0.0
2016-Nov-12 21:33N 33°37' W 117°55'0 0.0
2016-Nov-12 19:34N 33°37' W 117°55'0 0.0
2016-Nov-12 16:30N 33°37' W 117°55'0 0.0
2016-Nov-12 14:31N 33°37' W 117°55'0 0.0
2016-Nov-12 12:31N 33°37' W 117°55'0 0.0
2016-Nov-12 06:33N 33°37' W 117°55'0 0.0
2016-Nov-12 03:32N 33°37' W 117°55'0 0.0
2016-Nov-11 15:34N 33°37' W 117°55'0 0.0
2016-Nov-11 14:34N 33°37' W 117°55'0 0.0
2016-Nov-11 10:24N 33°37' W 117°55'0 0.0
2016-Nov-11 09:33N 33°37' W 117°55'0 0.0
2016-Nov-09 08:33N 33°37' W 117°55'0 0.0
2016-Nov-09 07:33N 33°37' W 117°55'0 0.0
2016-Nov-09 05:29N 33°37' W 117°55'0 0.0
2016-Nov-09 04:29N 33°37' W 117°55'  
Track history (hours):
 
Tides and Currents Weather Stations Pressure Air Temp Water Temp Dewpoint Dewpoint Depression Visibility Wind Speed Wind Dir Waves Ship Positions

Andiamo

Owner: Briggs, Robert O, Newport Beach, CA. More information available from US FCC via Universal Licensing System.

Last reported at 2016-Nov-19 01:27 UTC. Time now 2016-Dec-03 15:36 UTC.
Position N 32°14' W 117°20'.
Warning: this ship's position is 14 days out of date.

Length 22 m.

Type: Pleasure craft. MMSI: 367320870.

Date/timePositionNaut miles runAvg speedWind from/ knotsBaromVisibWave heightAir tempDewpointWater temp
2016-Nov-19 01:27N 32°14' W 117°20'910.4
2016-Nov-19 00:33N 32°23' W 117°22'1010.3
2016-Nov-18 23:33N 32°33' W 117°25'3010.1
2016-Nov-18 20:34N 33°02' W 117°37'20 9.9
2016-Nov-18 18:33N 33°20' W 117°46'1010.0
2016-Nov-18 17:33N 33°30' W 117°50'8 0.6
2016-Nov-18 04:17N 33°37' W 117°55'0 0.0
2016-Nov-17 23:04N 33°37' W 117°55'0 0.0
2016-Nov-17 22:33N 33°37' W 117°55'0 0.0
2016-Nov-17 18:26N 33°37' W 117°55'0 0.0
2016-Nov-16 17:33N 33°37' W 117°55'13 8.6
2016-Nov-16 16:04N 33°25' W 117°48'3810.3
2016-Nov-16 12:22N 32°49' W 117°33'15 5.3
2016-Nov-16 09:33N 33°03' W 117°39'10 9.9
2016-Nov-16 08:33N 33°12' W 117°43'10 9.8
2016-Nov-16 07:32N 33°22' W 117°47'1010.2
2016-Nov-16 06:33N 33°31' W 117°51'7 3.1
2016-Nov-16 04:25N 33°37' W 117°55'0 0.0
2016-Nov-16 03:32N 33°37' W 117°55'0 0.0
2016-Nov-16 02:24N 33°37' W 117°55'0 0.0
2016-Nov-16 01:34N 33°37' W 117°55'0 0.0
2016-Nov-15 21:13N 33°37' W 117°55'0 0.0
2016-Nov-15 19:33N 33°37' W 117°55'0 0.0
2016-Nov-15 18:33N 33°37' W 117°55'0 0.0
2016-Nov-15 13:33N 33°37' W 117°55'0 0.0
2016-Nov-15 12:33N 33°37' W 117°55'0 0.0
2016-Nov-15 11:32N 33°37' W 117°55'0 0.0
2016-Nov-15 10:30N 33°37' W 117°55'0 0.0
2016-Nov-15 07:33N 33°37' W 117°55'0 0.0
2016-Nov-15 06:33N 33°37' W 117°55'0 0.0
2016-Nov-15 05:53N 33°37' W 117°55'0 0.0
2016-Nov-15 02:34N 33°37' W 117°55'0 0.0
2016-Nov-15 00:34N 33°37' W 117°55'0 0.0
2016-Nov-14 23:43N 33°37' W 117°55'0 0.0
2016-Nov-14 19:33N 33°37' W 117°55'0 0.0
2016-Nov-14 17:33N 33°37' W 117°55'0 0.0
2016-Nov-14 15:33N 33°37' W 117°55'0 0.0
2016-Nov-14 11:33N 33°37' W 117°55'0 0.0
2016-Nov-14 08:33N 33°37' W 117°55'0 0.0
2016-Nov-14 05:33N 33°37' W 117°55'0 0.0
2016-Nov-14 00:33N 33°37' W 117°55'0 0.0
2016-Nov-13 23:33N 33°37' W 117°55'0 0.0
2016-Nov-13 22:33N 33°37' W 117°55'0 0.0
2016-Nov-13 19:33N 33°37' W 117°55'0 0.0
2016-Nov-13 18:33N 33°37' W 117°55'0 0.0
2016-Nov-13 17:34N 33°37' W 117°55'0 0.0
2016-Nov-13 15:34N 33°37' W 117°55'0 0.0
2016-Nov-13 13:33N 33°37' W 117°55'0 0.0
2016-Nov-13 10:33N 33°37' W 117°55'0 0.0
2016-Nov-13 08:34N 33°37' W 117°55'0 0.0
2016-Nov-13 05:33N 33°37' W 117°55'0 0.0
2016-Nov-13 03:33N 33°37' W 117°55'0 0.0
2016-Nov-12 21:33N 33°37' W 117°55'0 0.0
2016-Nov-12 19:34N 33°37' W 117°55'0 0.0
2016-Nov-12 16:30N 33°37' W 117°55'0 0.0
2016-Nov-12 14:31N 33°37' W 117°55'0 0.0
2016-Nov-12 12:31N 33°37' W 117°55'0 0.0
2016-Nov-12 06:33N 33°37' W 117°55'0 0.0
2016-Nov-12 03:32N 33°37' W 117°55'0 0.0
2016-Nov-11 15:34N 33°37' W 117°55'0 0.0
2016-Nov-11 14:34N 33°37' W 117°55'0 0.0
2016-Nov-11 10:24N 33°37' W 117°55'0 0.0
2016-Nov-11 09:33N 33°37' W 117°55'0 0.0
2016-Nov-09 08:33N 33°37' W 117°55'0 0.0
2016-Nov-09 07:33N 33°37' W 117°55'0 0.0
2016-Nov-09 05:29N 33°37' W 117°55'0 0.0
2016-Nov-09 04:29N 33°37' W 117°55'  

Dump ship's entire track history